createdAt,value
2019-04-27T00:01:05.148Z,78.70
2019-04-27T00:02:55.843Z,78.70
2019-04-27T00:04:48.632Z,79.00
2019-04-27T00:06:15.314Z,78.80
2019-04-27T00:07:56.254Z,79.40
2019-04-27T00:09:28.043Z,79.10
2019-04-27T00:10:59.821Z,79.00
2019-04-27T00:12:28.700Z,79.00
2019-04-27T00:13:54.476Z,78.90
2019-04-27T00:15:32.594Z,79.20
2019-04-27T00:17:13.488Z,79.10
2019-04-27T00:18:56.386Z,79.80
2019-04-27T00:20:43.431Z,79.10
2019-04-27T00:22:27.421Z,79.20
2019-04-27T00:23:53.233Z,79.60
2019-04-27T00:25:18.901Z,80.00
2019-04-27T00:26:45.536Z,80.00
2019-04-27T00:28:12.813Z,79.70
2019-04-27T00:29:38.558Z,79.70
2019-04-27T00:31:04.158Z,79.90
2019-04-27T00:32:29.644Z,79.90
2019-04-27T00:33:55.128Z,79.90
2019-04-27T00:35:29.839Z,80.00
2019-04-27T00:37:13.591Z,80.20
2019-04-27T00:39:10.160Z,80.30
2019-04-27T00:40:38.808Z,80.30
2019-04-27T00:42:04.364Z,80.30
2019-04-27T00:43:29.823Z,80.20
2019-04-27T00:44:55.427Z,80.20
2019-04-27T00:46:24.048Z,80.30
2019-04-27T00:47:59.058Z,80.20
2019-04-27T00:49:16.857Z,80.10
2019-04-27T00:50:43.889Z,80.00
2019-04-27T00:52:09.578Z,79.80
2019-04-27T00:53:35.074Z,80.00
2019-04-27T00:55:00.570Z,80.00
2019-04-27T00:56:47.724Z,79.90
2019-04-27T00:58:23.854Z,79.90
2019-04-27T01:00:06.737Z,79.90
2019-04-27T01:01:36.450Z,79.60
2019-04-27T01:03:06.223Z,79.80
2019-04-27T01:04:34.010Z,80.00
2019-04-27T01:05:59.823Z,80.10
2019-04-27T01:07:25.436Z,80.50
2019-04-27T01:08:51.058Z,80.60
2019-04-27T01:10:17.048Z,80.70
2019-04-27T01:11:44.721Z,80.80
2019-04-27T01:13:10.403Z,80.70
2019-04-27T01:14:35.833Z,80.80
2019-04-27T01:16:01.387Z,81.00
2019-04-27T01:17:26.942Z,81.00
2019-04-27T01:18:52.437Z,81.10
2019-04-27T01:20:18.542Z,81.20
2019-04-27T01:21:44.351Z,81.30
2019-04-27T01:23:10.785Z,81.60
2019-04-27T01:24:36.496Z,81.70
2019-04-27T01:26:19.325Z,81.90
2019-04-27T01:28:02.605Z,81.80
2019-04-27T01:29:29.145Z,82.20
2019-04-27T01:30:58.898Z,82.50
2019-04-27T01:32:25.304Z,82.10
2019-04-27T01:33:50.900Z,82.10
2019-04-27T01:35:16.391Z,82.20
2019-04-27T01:36:41.966Z,82.30
2019-04-27T01:38:09.037Z,82.30
2019-04-27T01:39:34.758Z,82.20
2019-04-27T01:41:00.617Z,82.20
2019-04-27T01:42:26.348Z,82.30
2019-04-27T01:43:51.832Z,82.30
2019-04-27T01:45:18.684Z,82.20
2019-04-27T01:46:44.506Z,82.40
2019-04-27T01:48:22.174Z,82.40
2019-04-27T01:49:37.399Z,82.50
2019-04-27T01:51:02.898Z,82.40
2019-04-27T01:52:29.187Z,82.30
2019-04-27T01:53:55.474Z,82.50
2019-04-27T01:55:20.962Z,82.50
2019-04-27T01:56:46.497Z,83.20
2019-04-27T01:58:12.045Z,82.80
2019-04-27T01:59:38.695Z,83.00
2019-04-27T02:01:23.726Z,83.20
2019-04-27T02:02:54.843Z,83.10
2019-04-27T02:04:34.409Z,83.00
2019-04-27T02:06:00.232Z,83.00
2019-04-27T02:07:26.827Z,83.00
2019-04-27T02:08:52.415Z,83.80
2019-04-27T02:10:19.246Z,83.10
2019-04-27T02:11:45.054Z,83.10
2019-04-27T02:13:10.657Z,83.30
2019-04-27T02:14:36.240Z,83.50
2019-04-27T02:16:01.691Z,83.40
2019-04-27T02:17:28.650Z,83.40
2019-04-27T02:18:54.335Z,83.30
2019-04-27T02:20:20.035Z,83.40
2019-04-27T02:21:45.698Z,83.30
2019-04-27T02:23:12.172Z,83.40
2019-04-27T02:24:39.002Z,83.30
2019-04-27T02:26:05.206Z,83.50
2019-04-27T02:27:32.275Z,83.50
2019-04-27T02:29:34.953Z,83.50
2019-04-27T02:31:32.929Z,83.30
2019-04-27T02:33:30.184Z,83.60
2019-04-27T02:35:00.170Z,83.70
2019-04-27T02:36:25.812Z,83.90
2019-04-27T02:37:51.237Z,84.00
2019-04-27T02:39:16.735Z,84.10
2019-04-27T02:41:00.135Z,84.40
2019-04-27T02:42:29.783Z,84.50
2019-04-27T02:44:09.548Z,84.60
2019-04-27T02:45:34.503Z,84.30
2019-04-27T02:47:00.522Z,84.50
2019-04-27T02:48:26.257Z,84.50
2019-04-27T02:49:51.755Z,84.50
2019-04-27T02:51:24.128Z,84.50
2019-04-27T02:52:50.156Z,84.60
2019-04-27T02:54:15.815Z,84.50
2019-04-27T02:55:41.392Z,84.40
2019-04-27T02:57:09.641Z,84.30
2019-04-27T02:58:34.064Z,84.30
2019-04-27T03:00:00.146Z,84.30
2019-04-27T03:01:30.546Z,84.30
2019-04-27T03:03:02.563Z,84.20
2019-04-27T03:04:30.131Z,84.30
2019-04-27T03:05:55.303Z,84.60
2019-04-27T03:07:20.908Z,84.60
2019-04-27T03:08:50.670Z,84.50
2019-04-27T03:10:13.732Z,84.30
2019-04-27T03:11:39.723Z,83.90
2019-04-27T03:13:19.818Z,83.80
2019-04-27T03:15:01.852Z,83.40
2019-04-27T03:16:51.940Z,83.70
2019-04-27T03:18:33.009Z,84.30
2019-04-27T03:20:16.649Z,84.30
2019-04-27T03:21:59.468Z,84.70
2019-04-27T03:23:25.211Z,85.20
2019-04-27T03:25:31.960Z,85.40
2019-04-27T03:27:00.490Z,85.50
2019-04-27T03:28:25.224Z,86.30
2019-04-27T03:29:50.948Z,86.00
2019-04-27T03:31:16.443Z,86.30
2019-04-27T03:32:43.239Z,85.80
2019-04-27T03:34:15.733Z,86.00
2019-04-27T03:35:37.277Z,86.40
2019-04-27T03:37:03.876Z,86.30
2019-04-27T03:38:30.244Z,86.40
2019-04-27T03:39:56.044Z,87.50
2019-04-27T03:41:21.812Z,88.00
2019-04-27T03:42:50.154Z,88.70
2019-04-27T03:44:15.938Z,88.20
2019-04-27T03:45:41.531Z,88.60
2019-04-27T03:47:09.992Z,88.30
2019-04-27T03:48:34.316Z,88.20
2019-04-27T03:50:00.201Z,88.60
2019-04-27T03:51:43.553Z,88.70
2019-04-27T03:53:30.561Z,90.40
2019-04-27T03:55:04.865Z,90.80
2019-04-27T03:56:35.875Z,91.10
2019-04-27T03:58:21.641Z,91.30
2019-04-27T03:59:59.707Z,91.40
2019-04-27T04:01:25.529Z,91.30
2019-04-27T04:02:50.979Z,91.10
2019-04-27T04:04:16.529Z,91.10
2019-04-27T04:05:42.077Z,91.40
2019-04-27T04:07:15.297Z,91.60
2019-04-27T04:08:40.880Z,91.70
2019-04-27T04:10:07.123Z,91.40
2019-04-27T04:11:39.928Z,91.50
2019-04-27T04:13:24.348Z,91.30
2019-04-27T04:14:49.880Z,91.20
2019-04-27T04:16:24.919Z,91.30
2019-04-27T04:17:50.512Z,91.20
2019-04-27T04:19:16.088Z,91.30
2019-04-27T04:20:41.691Z,91.20
2019-04-27T04:22:09.983Z,91.10
2019-04-27T04:23:34.491Z,91.00
2019-04-27T04:25:00.159Z,90.90
2019-04-27T04:26:25.814Z,90.90
2019-04-27T04:27:51.378Z,90.80
2019-04-27T04:29:17.074Z,90.80
2019-04-27T04:30:42.554Z,91.20
2019-04-27T04:32:10.439Z,90.90
2019-04-27T04:33:35.151Z,90.80
2019-04-27T04:35:20.769Z,90.90
2019-04-27T04:36:45.534Z,90.90
2019-04-27T04:38:11.136Z,90.90
2019-04-27T04:39:36.781Z,90.80
2019-04-27T04:41:06.120Z,90.70
2019-04-27T04:42:39.177Z,90.60
2019-04-27T04:44:20.310Z,91.00
2019-04-27T04:46:05.115Z,91.30
2019-04-27T04:47:40.968Z,91.50
2019-04-27T04:49:06.537Z,91.30
2019-04-27T04:50:32.028Z,91.40
2019-04-27T04:52:09.465Z,91.40
2019-04-27T04:53:52.471Z,91.40
2019-04-27T04:55:40.106Z,91.50
2019-04-27T04:57:11.584Z,91.60
2019-04-27T04:58:39.718Z,91.60
2019-04-27T05:00:05.106Z,91.60
2019-04-27T05:01:30.700Z,91.50
2019-04-27T05:02:56.177Z,91.60
2019-04-27T05:04:21.647Z,91.50
2019-04-27T05:05:47.103Z,91.60
2019-04-27T05:07:12.729Z,91.60
2019-04-27T05:08:39.366Z,91.70
2019-04-27T05:10:05.966Z,91.80
2019-04-27T05:11:31.469Z,91.50
2019-04-27T05:12:56.958Z,91.60
2019-04-27T05:14:22.435Z,91.50
2019-04-27T05:15:48.717Z,91.40
2019-04-27T05:17:14.412Z,91.30
2019-04-27T05:18:39.984Z,91.20
2019-04-27T05:20:26.298Z,91.30
2019-04-27T05:21:50.239Z,91.30
2019-04-27T05:23:15.776Z,91.30
2019-04-27T05:24:41.364Z,91.10
2019-04-27T05:26:06.864Z,91.00
2019-04-27T05:27:32.872Z,90.80
2019-04-27T05:28:59.293Z,90.90
2019-04-27T05:30:30.760Z,90.60
2019-04-27T05:31:56.247Z,90.70
2019-04-27T05:33:21.904Z,90.70
2019-04-27T05:34:47.456Z,90.70
2019-04-27T05:36:13.909Z,90.60
2019-04-27T05:37:39.439Z,90.50
2019-04-27T05:39:06.697Z,90.50
2019-04-27T05:40:32.214Z,90.40
2019-04-27T05:41:59.528Z,90.30
2019-04-27T05:43:33.281Z,90.40
2019-04-27T05:45:23.485Z,90.40
2019-04-27T05:47:10.004Z,90.20
2019-04-27T05:48:33.752Z,90.20
2019-04-27T05:50:06.471Z,90.30
2019-04-27T05:51:36.985Z,90.30
2019-04-27T05:52:59.672Z,90.10
2019-04-27T05:54:25.238Z,90.10
2019-04-27T05:55:50.765Z,90.00
2019-04-27T05:57:16.229Z,90.00
2019-04-27T05:58:41.728Z,89.80
2019-04-27T06:00:09.370Z,89.70
2019-04-27T06:01:34.999Z,89.50
2019-04-27T06:03:00.588Z,89.90
2019-04-27T06:04:26.206Z,89.70
2019-04-27T06:05:51.760Z,89.40
2019-04-27T06:07:19.236Z,89.30
2019-04-27T06:08:44.518Z,89.10
2019-04-27T06:10:10.229Z,89.00
2019-04-27T06:11:35.716Z,88.80
2019-04-27T06:13:01.237Z,88.80
2019-04-27T06:14:26.753Z,89.00
2019-04-27T06:15:52.215Z,89.30
2019-04-27T06:17:19.477Z,89.10
2019-04-27T06:18:45.131Z,89.10
2019-04-27T06:20:10.806Z,88.80
2019-04-27T06:21:36.283Z,88.70
2019-04-27T06:23:01.837Z,88.70
2019-04-27T06:24:27.291Z,88.80
2019-04-27T06:25:52.842Z,88.90
2019-04-27T06:27:18.567Z,88.40
2019-04-27T06:28:45.648Z,87.90
2019-04-27T06:30:11.533Z,87.90
2019-04-27T06:31:36.985Z,88.90
2019-04-27T06:33:02.557Z,88.10
2019-04-27T06:34:30.629Z,87.70
2019-04-27T06:35:55.287Z,86.90
2019-04-27T06:37:21.607Z,87.20
2019-04-27T06:38:48.549Z,87.30
2019-04-27T06:40:14.291Z,87.40
2019-04-27T06:41:40.257Z,87.60
2019-04-27T06:43:06.079Z,87.80
2019-04-27T06:44:31.606Z,87.70
2019-04-27T06:45:58.613Z,87.30
2019-04-27T06:47:24.318Z,86.90
2019-04-27T06:48:51.267Z,85.90
2019-04-27T06:50:16.758Z,85.50
2019-04-27T06:51:42.288Z,84.90
2019-04-27T06:53:09.111Z,84.40
2019-04-27T06:54:34.936Z,84.40
2019-04-27T06:56:00.446Z,83.20
2019-04-27T06:57:25.947Z,82.90
2019-04-27T06:58:51.424Z,82.90
2019-04-27T07:00:18.880Z,83.20
2019-04-27T07:01:44.570Z,83.50
2019-04-27T07:03:10.649Z,83.50
2019-04-27T07:04:36.323Z,83.40
2019-04-27T07:06:01.888Z,83.20
2019-04-27T07:07:29.272Z,82.10
2019-04-27T07:08:55.310Z,80.80
2019-04-27T07:10:21.078Z,80.30
2019-04-27T07:11:46.674Z,80.30
2019-04-27T07:13:12.275Z,80.50
2019-04-27T07:14:51.770Z,81.00
2019-04-27T07:16:05.158Z,80.90
2019-04-27T07:17:30.720Z,81.00
2019-04-27T07:18:56.166Z,80.90
2019-04-27T07:20:21.689Z,80.70
2019-04-27T07:21:47.197Z,80.60
2019-04-27T07:23:13.201Z,80.40
2019-04-27T07:24:40.490Z,80.10
2019-04-27T07:26:05.926Z,79.80
2019-04-27T07:27:31.664Z,79.80
2019-04-27T07:28:59.403Z,79.50
2019-04-27T07:30:24.889Z,78.70
2019-04-27T07:31:50.598Z,78.50
2019-04-27T07:33:18.611Z,77.60
2019-04-27T07:34:43.924Z,76.90
2019-04-27T07:36:09.394Z,76.00
2019-04-27T07:37:34.952Z,75.60
2019-04-27T07:39:00.653Z,75.20
2019-04-27T07:40:26.219Z,74.00
2019-04-27T07:41:51.775Z,73.60
2019-04-27T07:43:42.147Z,73.60
2019-04-27T07:45:14.749Z,74.10
2019-04-27T07:46:40.308Z,77.00
2019-04-27T07:48:05.986Z,79.70
2019-04-27T07:49:31.579Z,80.90
2019-04-27T07:50:59.076Z,82.10
2019-04-27T07:52:24.976Z,82.80
2019-04-27T07:53:50.443Z,82.50
2019-04-27T07:55:16.029Z,83.30
2019-04-27T07:56:41.539Z,83.20
2019-04-27T07:58:08.800Z,83.30
2019-04-27T07:59:34.197Z,81.10
2019-04-27T08:00:59.847Z,83.20
2019-04-27T08:02:25.420Z,81.20
2019-04-27T08:03:50.982Z,80.70
2019-04-27T08:05:16.565Z,81.30
2019-04-27T08:06:42.111Z,79.00
2019-04-27T08:08:08.940Z,80.40
2019-04-27T08:09:35.189Z,81.20
2019-04-27T08:11:01.227Z,77.00
2019-04-27T08:12:28.761Z,74.50
2019-04-27T08:13:53.980Z,75.10
2019-04-27T08:15:19.661Z,74.50
2019-04-27T08:16:45.420Z,73.60
2019-04-27T08:18:10.895Z,70.40
2019-04-27T08:19:36.504Z,72.90
2019-04-27T08:21:01.996Z,73.70
2019-04-27T08:22:29.106Z,74.40
2019-04-27T08:23:54.961Z,73.00
2019-04-27T08:25:22.257Z,71.60
2019-04-27T08:26:56.803Z,68.70
2019-04-27T08:28:32.854Z,68.20
2019-04-27T08:30:17.201Z,67.30
2019-04-27T08:31:53.541Z,69.40
2019-04-27T08:33:19.044Z,68.00
2019-04-27T08:34:44.620Z,69.30
2019-04-27T08:36:10.099Z,64.10
2019-04-27T08:37:35.677Z,63.80
2019-04-27T08:39:01.251Z,65.80
2019-04-27T08:40:26.713Z,66.90
2019-04-27T08:41:52.232Z,64.20
2019-04-27T08:43:19.104Z,62.80
2019-04-27T08:44:44.904Z,62.60
2019-04-27T08:46:10.468Z,62.60
2019-04-27T08:47:36.182Z,63.40
2019-04-27T08:49:01.789Z,64.30
2019-04-27T08:50:28.606Z,62.70
2019-04-27T08:51:59.082Z,61.60
2019-04-27T08:53:21.377Z,64.00
2019-04-27T08:54:49.130Z,62.60
2019-04-27T08:56:14.508Z,61.80
2019-04-27T08:57:40.318Z,60.90
2019-04-27T08:59:06.223Z,59.30
2019-04-27T09:00:31.875Z,61.50
2019-04-27T09:01:58.746Z,59.30
2019-04-27T09:03:24.445Z,61.90
2019-04-27T09:04:50.015Z,60.20
2019-04-27T09:06:15.735Z,65.60
2019-04-27T09:08:00.037Z,61.30
2019-04-27T09:09:40.472Z,60.80
2019-04-27T09:11:34.069Z,59.30
2019-04-27T09:13:11.769Z,62.00
2019-04-27T09:14:49.470Z,57.30
2019-04-27T09:16:40.222Z,61.60
2019-04-27T09:18:06.049Z,57.00
2019-04-27T09:19:49.155Z,56.60
2019-04-27T09:21:14.942Z,54.60
2019-04-27T09:22:40.382Z,56.70
2019-04-27T09:24:05.848Z,61.00
2019-04-27T09:25:32.521Z,57.60
2019-04-27T09:26:59.593Z,56.00
2019-04-27T09:28:25.227Z,56.90
2019-04-27T09:29:50.711Z,52.60
2019-04-27T09:31:16.155Z,53.30
2019-04-27T09:32:41.692Z,51.60
2019-04-27T09:34:08.104Z,62.00
2019-04-27T09:35:35.551Z,60.40
2019-04-27T09:37:01.112Z,60.30
2019-04-27T09:38:29.602Z,53.90
2019-04-27T09:39:53.841Z,52.80
2019-04-27T09:41:19.439Z,56.60
2019-04-27T09:42:46.376Z,56.20
2019-04-27T09:44:12.031Z,54.20
2019-04-27T09:45:37.616Z,56.10
2019-04-27T09:47:03.159Z,54.70
2019-04-27T09:48:28.970Z,53.10
2019-04-27T09:49:56.428Z,54.90
2019-04-27T09:51:21.709Z,53.50
2019-04-27T09:52:47.119Z,55.20
2019-04-27T09:54:23.740Z,56.20
2019-04-27T09:55:49.332Z,53.00
2019-04-27T09:57:16.043Z,52.00
2019-04-27T09:58:41.604Z,53.90
2019-04-27T10:00:10.147Z,53.80
2019-04-27T10:01:36.089Z,56.70
2019-04-27T10:03:01.781Z,53.30
2019-04-27T10:04:27.580Z,51.50
2019-04-27T10:05:53.052Z,54.10
2019-04-27T10:07:18.507Z,54.30
2019-04-27T10:08:44.006Z,52.20
2019-04-27T10:10:10.029Z,53.50
2019-04-27T10:11:35.712Z,54.40
2019-04-27T10:13:01.255Z,52.80
2019-04-27T10:14:26.736Z,51.60
2019-04-27T10:15:52.256Z,53.20
2019-04-27T10:17:17.756Z,51.90
2019-04-27T10:18:43.303Z,54.10
2019-04-27T10:20:09.062Z,52.70
2019-04-27T10:21:36.235Z,52.90
2019-04-27T10:23:01.634Z,51.70
2019-04-27T10:24:27.080Z,51.90
2019-04-27T10:25:52.567Z,50.60
2019-04-27T10:27:18.050Z,50.30
2019-04-27T10:28:43.560Z,50.70
2019-04-27T10:30:10.198Z,50.90
2019-04-27T10:31:35.772Z,54.00
2019-04-27T10:33:01.264Z,54.30
2019-04-27T10:34:26.736Z,55.00
2019-04-27T10:35:52.142Z,54.00
2019-04-27T10:37:17.811Z,54.80
2019-04-27T10:38:43.331Z,54.00
2019-04-27T10:40:08.925Z,54.20
2019-04-27T10:41:34.397Z,53.70
2019-04-27T10:42:59.976Z,56.20
2019-04-27T10:44:26.681Z,57.70
2019-04-27T10:45:52.300Z,59.30
2019-04-27T10:47:17.782Z,59.60
2019-04-27T10:48:43.255Z,60.40
2019-04-27T10:50:08.976Z,60.20
2019-04-27T10:51:36.322Z,57.40
2019-04-27T10:53:01.875Z,58.40
2019-04-27T10:54:27.431Z,59.50
2019-04-27T10:55:52.875Z,59.70
2019-04-27T10:57:18.348Z,59.50
2019-04-27T10:58:45.591Z,60.60
2019-04-27T11:00:13.908Z,59.70
2019-04-27T11:01:39.550Z,61.70
2019-04-27T11:03:06.578Z,62.60
2019-04-27T11:04:54.082Z,62.30
2019-04-27T11:06:32.893Z,62.60
2019-04-27T11:07:58.850Z,64.00
2019-04-27T11:09:25.719Z,64.80
2019-04-27T11:10:51.315Z,65.00
2019-04-27T11:12:16.783Z,62.50
2019-04-27T11:13:42.236Z,63.00
2019-04-27T11:15:09.126Z,64.00
2019-04-27T11:16:35.667Z,63.70
2019-04-27T11:18:01.949Z,63.20
2019-04-27T11:19:27.504Z,64.90
2019-04-27T11:20:52.976Z,66.50
2019-04-27T11:22:18.502Z,65.60
2019-04-27T11:23:45.868Z,65.50
2019-04-27T11:25:11.358Z,65.50
2019-04-27T11:26:36.912Z,65.30
2019-04-27T11:28:02.455Z,64.10
2019-04-27T11:29:27.960Z,65.20
2019-04-27T11:31:08.143Z,66.60
2019-04-27T11:33:06.129Z,67.40
2019-04-27T11:34:51.562Z,68.90
2019-04-27T11:36:49.940Z,67.80
2019-04-27T11:38:16.761Z,68.10
2019-04-27T11:39:42.970Z,68.50
2019-04-27T11:41:10.923Z,70.40
2019-04-27T11:42:39.305Z,69.70
2019-04-27T11:44:04.950Z,70.20
2019-04-27T11:45:30.896Z,71.00
2019-04-27T11:46:56.658Z,72.20
2019-04-27T11:48:27.431Z,73.50
2019-04-27T11:50:02.298Z,74.60
2019-04-27T11:51:27.828Z,74.70
2019-04-27T11:52:53.666Z,74.70
2019-04-27T11:54:19.314Z,75.00
2019-04-27T11:55:45.305Z,75.00
2019-04-27T11:57:11.041Z,75.30
2019-04-27T11:58:36.583Z,75.30
2019-04-27T12:00:02.316Z,75.20
2019-04-27T12:01:27.765Z,74.60
2019-04-27T12:02:53.381Z,75.20
2019-04-27T12:04:18.866Z,75.30
2019-04-27T12:05:46.379Z,74.60
2019-04-27T12:07:11.651Z,74.00
2019-04-27T12:08:37.154Z,75.00
2019-04-27T12:10:02.753Z,75.50
2019-04-27T12:11:28.253Z,75.10
2019-04-27T12:12:53.868Z,75.80
2019-04-27T12:14:19.432Z,75.20
2019-04-27T12:15:46.485Z,75.00
2019-04-27T12:17:12.093Z,74.60
2019-04-27T12:18:37.989Z,74.60
2019-04-27T12:20:03.571Z,74.40
2019-04-27T12:21:29.367Z,73.50
2019-04-27T12:22:55.257Z,72.10
2019-04-27T12:24:24.103Z,72.00
2019-04-27T12:25:49.850Z,71.20
2019-04-27T12:27:35.794Z,71.10
2019-04-27T12:29:06.157Z,68.60
2019-04-27T12:30:49.419Z,69.60
2019-04-27T12:32:27.153Z,68.30
2019-04-27T12:33:52.831Z,68.40
2019-04-27T12:35:18.699Z,68.60
2019-04-27T12:36:45.841Z,67.90
2019-04-27T12:38:13.679Z,69.90
2019-04-27T12:39:39.240Z,69.40
2019-04-27T12:41:06.772Z,69.80
2019-04-27T12:42:36.336Z,69.10
2019-04-27T12:44:04.152Z,68.60
2019-04-27T12:45:30.803Z,70.10
2019-04-27T12:47:02.298Z,70.70
2019-04-27T12:48:23.382Z,70.30
2019-04-27T12:49:49.040Z,69.00
2019-04-27T12:51:20.818Z,68.50
2019-04-27T12:52:46.928Z,68.20
2019-04-27T12:54:22.348Z,68.30
2019-04-27T12:56:12.769Z,68.10
2019-04-27T12:57:55.663Z,68.10
2019-04-27T12:59:44.078Z,66.70
2019-04-27T13:01:15.763Z,66.60
2019-04-27T13:02:53.040Z,64.90
2019-04-27T13:04:18.554Z,65.70
2019-04-27T13:07:21.227Z,68.00
2019-04-27T13:08:48.784Z,66.60
2019-04-27T13:10:15.940Z,65.60
2019-04-27T13:11:41.644Z,65.50
2019-04-27T13:13:07.179Z,65.70
2019-04-27T13:14:32.669Z,64.70
2019-04-27T13:15:58.122Z,65.50
2019-04-27T13:17:26.744Z,65.80
2019-04-27T13:18:52.739Z,66.70
2019-04-27T13:20:19.293Z,66.80
2019-04-27T13:21:46.953Z,66.10
2019-04-27T13:23:13.157Z,64.50
2019-04-27T13:24:38.727Z,64.60
2019-04-27T13:26:06.254Z,64.90
2019-04-27T13:27:33.748Z,65.90
2019-04-27T13:28:59.206Z,64.10
2019-04-27T13:30:25.714Z,62.40
2019-04-27T13:31:51.668Z,63.30
2019-04-27T13:33:17.525Z,62.80
2019-04-27T13:34:43.701Z,62.90
2019-04-27T13:36:09.491Z,62.90
2019-04-27T13:37:40.028Z,63.50
2019-04-27T13:39:07.129Z,62.80
2019-04-27T13:40:35.719Z,62.90
2019-04-27T13:42:01.888Z,62.20
2019-04-27T13:43:34.256Z,62.50
2019-04-27T13:45:01.695Z,63.10
2019-04-27T13:46:58.563Z,63.20
2019-04-27T13:48:41.452Z,63.20
2019-04-27T13:50:13.734Z,62.80
2019-04-27T13:52:16.672Z,63.80
2019-04-27T13:53:42.475Z,63.80
2019-04-27T13:55:08.513Z,64.40
2019-04-27T13:56:34.081Z,63.80
2019-04-27T13:57:59.697Z,64.10
2019-04-27T13:59:25.622Z,65.50
2019-04-27T14:00:51.066Z,63.80
2019-04-27T14:02:16.870Z,64.10
2019-04-27T14:03:42.583Z,64.60
2019-04-27T14:05:08.631Z,64.40
2019-04-27T14:06:34.613Z,65.00
2019-04-27T14:08:00.587Z,64.20
2019-04-27T14:09:26.013Z,62.60
2019-04-27T14:10:51.656Z,60.80
2019-04-27T14:12:21.528Z,61.30
2019-04-27T14:13:48.478Z,61.30
2019-04-27T14:15:14.997Z,59.70
2019-04-27T14:16:43.553Z,57.00
2019-04-27T14:18:08.489Z,58.30
2019-04-27T14:19:33.971Z,56.30
2019-04-27T14:20:59.700Z,54.20
2019-04-27T14:22:26.076Z,54.10
2019-04-27T14:23:51.555Z,52.80
2019-04-27T14:25:18.135Z,52.40
2019-04-27T14:26:43.781Z,53.10
2019-04-27T14:28:09.259Z,53.80
2019-04-27T14:29:34.860Z,54.20
2019-04-27T14:31:00.658Z,55.90
2019-04-27T14:32:26.350Z,55.40
2019-04-27T14:33:52.923Z,54.10
2019-04-27T14:35:18.443Z,54.30
2019-04-27T14:36:48.966Z,55.70
2019-04-27T14:38:15.296Z,57.40
2019-04-27T14:39:41.068Z,57.80
2019-04-27T14:41:09.047Z,57.60
2019-04-27T14:42:36.157Z,58.10
2019-04-27T14:44:07.711Z,57.70
2019-04-27T14:45:29.351Z,57.50
2019-04-27T14:46:54.936Z,59.10
2019-04-27T14:48:20.404Z,59.60
2019-04-27T14:49:45.985Z,59.40
2019-04-27T14:51:12.606Z,59.40
2019-04-27T14:52:39.085Z,59.90
2019-04-27T14:54:05.311Z,60.00
2019-04-27T14:55:30.784Z,60.50
2019-04-27T14:56:56.214Z,60.90
2019-04-27T14:58:21.727Z,61.10
2019-04-27T14:59:47.199Z,60.70
2019-04-27T15:01:12.738Z,60.30
2019-04-27T15:02:39.245Z,60.20
2019-04-27T15:04:04.983Z,60.00
2019-04-27T15:05:30.539Z,60.40
2019-04-27T15:06:56.250Z,61.20
2019-04-27T15:08:21.943Z,61.50
2019-04-27T15:09:49.649Z,62.20
2019-04-27T15:11:17.335Z,62.40
2019-04-27T15:12:41.981Z,62.80
2019-04-27T15:14:09.086Z,63.40
2019-04-27T15:15:35.021Z,63.60
2019-04-27T15:17:01.539Z,64.00
2019-04-27T15:18:34.704Z,64.40
2019-04-27T15:20:02.420Z,64.60
2019-04-27T15:21:27.992Z,65.40
2019-04-27T15:22:56.945Z,65.80
2019-04-27T15:24:21.169Z,66.50
2019-04-27T15:25:47.222Z,66.90
2019-04-27T15:27:14.493Z,67.60
2019-04-27T15:28:44.807Z,67.80
2019-04-27T15:30:11.687Z,67.80
2019-04-27T15:31:41.223Z,67.80
2019-04-27T15:33:34.988Z,68.30
2019-04-27T15:35:19.594Z,68.00
2019-04-27T15:36:57.040Z,68.10
2019-04-27T15:38:26.131Z,66.80
2019-04-27T15:40:16.513Z,67.00
2019-04-27T15:41:48.517Z,67.40
2019-04-27T15:43:18.823Z,67.70
2019-04-27T15:44:44.342Z,66.60
2019-04-27T15:46:09.855Z,66.40
2019-04-27T15:47:35.624Z,66.40
2019-04-27T15:49:03.059Z,64.80
2019-04-27T15:50:32.119Z,64.00
2019-04-27T15:51:56.204Z,63.80
2019-04-27T15:53:21.856Z,63.90
2019-04-27T15:54:48.129Z,64.00
2019-04-27T15:56:14.052Z,63.70
2019-04-27T15:57:42.645Z,63.80
2019-04-27T15:59:08.151Z,63.70
2019-04-27T16:00:34.097Z,64.10
2019-04-27T16:01:59.548Z,64.50
2019-04-27T16:03:27.272Z,65.40
2019-04-27T16:04:53.437Z,66.10
2019-04-27T16:06:19.451Z,66.90
2019-04-27T16:07:45.197Z,67.20
2019-04-27T16:09:16.162Z,67.40
2019-04-27T16:10:41.273Z,67.90
2019-04-27T16:12:10.722Z,68.10
2019-04-27T16:13:34.283Z,68.50
2019-04-27T16:14:59.816Z,68.90
2019-04-27T16:16:29.090Z,69.20
2019-04-27T16:17:55.934Z,69.60
2019-04-27T16:19:19.675Z,69.70
2019-04-27T16:20:45.436Z,69.50
2019-04-27T16:22:11.175Z,69.20
2019-04-27T16:23:39.891Z,68.80
2019-04-27T16:25:03.995Z,69.00
2019-04-27T16:26:29.536Z,68.80
2019-04-27T16:27:55.015Z,68.90
2019-04-27T16:29:23.098Z,69.10
2019-04-27T16:30:52.346Z,69.40
2019-04-27T16:32:15.036Z,69.40
2019-04-27T16:33:40.537Z,68.60
2019-04-27T16:35:07.884Z,68.30
2019-04-27T16:36:39.404Z,68.70
2019-04-27T16:38:18.685Z,69.00
2019-04-27T16:39:45.858Z,68.20
2019-04-27T16:41:11.431Z,68.60
2019-04-27T16:42:38.372Z,68.60
2019-04-27T16:44:06.923Z,68.40
2019-04-27T16:45:31.680Z,68.20
2019-04-27T16:46:58.283Z,68.20
2019-04-27T16:48:28.050Z,67.60
2019-04-27T16:49:51.082Z,68.40
2019-04-27T16:51:18.333Z,68.50
2019-04-27T16:52:44.247Z,68.40
2019-04-27T16:54:11.144Z,68.40
2019-04-27T16:55:38.620Z,68.40
2019-04-27T16:57:05.461Z,68.50
2019-04-27T16:58:31.903Z,68.60
2019-04-27T17:01:30.442Z,67.70
2019-04-27T17:02:59.860Z,67.60
2019-04-27T17:04:23.450Z,67.50
2019-04-27T17:05:50.239Z,67.30
2019-04-27T17:07:15.780Z,67.30
2019-04-27T17:08:41.886Z,67.40
2019-04-27T17:10:11.028Z,66.60
2019-04-27T17:11:43.753Z,66.80
2019-04-27T17:12:40.261Z,68.40
2019-04-27T17:13:12.967Z,66.80
2019-04-27T17:15:00.041Z,67.00
2019-04-27T17:16:53.678Z,66.80
2019-04-27T17:18:48.948Z,66.50
2019-04-27T17:20:17.809Z,66.60
2019-04-27T17:21:41.389Z,67.40
2019-04-27T17:23:08.662Z,66.90
2019-04-27T17:24:41.937Z,66.70
2019-04-27T17:26:13.926Z,66.70
2019-04-27T17:27:38.632Z,66.80
2019-04-27T17:29:16.155Z,66.70
2019-04-27T17:30:39.757Z,67.30
2019-04-27T17:32:03.532Z,67.40
2019-04-27T17:33:32.160Z,67.40
2019-04-27T17:35:02.480Z,67.50
2019-04-27T17:36:24.752Z,66.50
2019-04-27T17:37:50.428Z,66.60
2019-04-27T17:39:19.298Z,66.40
2019-04-27T17:40:42.982Z,66.80
2019-04-27T17:42:08.651Z,67.00
2019-04-27T17:43:37.369Z,66.60
2019-04-27T17:45:01.440Z,66.80
2019-04-27T17:46:28.223Z,67.10
2019-04-27T17:47:53.799Z,66.90
2019-04-27T17:49:19.198Z,66.50
2019-04-27T17:50:45.555Z,66.30
2019-04-27T17:52:13.022Z,66.40
2019-04-27T17:53:38.197Z,66.40
2019-04-27T17:55:03.813Z,66.40
2019-04-27T17:56:35.612Z,66.50
2019-04-27T17:58:00.591Z,66.60
2019-04-27T17:59:23.876Z,66.70
2019-04-27T18:00:49.402Z,66.70
2019-04-27T18:02:14.997Z,67.20
2019-04-27T18:03:40.543Z,67.30
2019-04-27T18:05:09.526Z,67.50
2019-04-27T18:06:33.497Z,67.80
2019-04-27T18:07:58.962Z,68.10
2019-04-27T18:09:24.643Z,68.40
2019-04-27T18:10:53.762Z,68.60
2019-04-27T18:12:18.334Z,68.90
2019-04-27T18:13:43.993Z,68.90
2019-04-27T18:15:10.522Z,69.70
2019-04-27T18:16:38.050Z,69.80
2019-04-27T18:18:12.475Z,71.10
2019-04-27T18:19:45.845Z,71.00
2019-04-27T18:21:11.577Z,71.40
2019-04-27T18:22:41.458Z,71.70
2019-04-27T18:24:12.372Z,72.00
2019-04-27T18:25:43.570Z,72.30
2019-04-27T18:27:37.725Z,71.80
2019-04-27T18:29:01.710Z,71.80
2019-04-27T18:30:37.688Z,73.40
2019-04-27T18:32:00.726Z,74.30
2019-04-27T18:33:26.244Z,75.20
2019-04-27T18:34:51.716Z,75.90
2019-04-27T18:36:18.224Z,76.30
2019-04-27T18:37:43.825Z,76.00
2019-04-27T18:39:13.443Z,75.20
2019-04-27T18:40:38.195Z,73.70
2019-04-27T18:42:03.981Z,72.10
2019-04-27T18:43:29.464Z,72.10
2019-04-27T18:44:54.882Z,71.70
2019-04-27T18:46:24.490Z,70.90
2019-04-27T18:47:50.892Z,70.80
2019-04-27T18:49:30.226Z,71.00
2019-04-27T18:51:02.391Z,71.80
2019-04-27T18:52:47.250Z,71.50
2019-04-27T18:54:08.236Z,71.50
2019-04-27T18:55:49.989Z,71.70
2019-04-27T18:57:33.139Z,71.40
2019-04-27T18:59:01.747Z,71.50
2019-04-27T19:00:27.654Z,71.70
2019-04-27T19:02:10.286Z,71.70
2019-04-27T19:03:36.029Z,71.70